Time;durP1;ratioP1;P1;durP2;ratioP2;P2;SDS_P1;SDS_P2;PMS_P1;PMS_P2;Temp;Humidity;BMP_temperature;BMP_pressure;BME280_temperature;BME280_humidity;BME280_pressure;Samples;Min_cycle;Max_cycle;Signal;HPM_P1;HPM_P2
2021/06/20 00:02:57;;;;;;;70.75;48.30;;;;;;;19.04;86.51;100522.66;10587895;28;20048;-61
2021/06/20 00:08:03;;;;;;;68.20;46.72;;;;;;;19.10;83.79;100497.38;10587912;28;20040;-62
2021/06/20 00:13:06;;;;;;;72.05;49.47;;;;;;;18.93;87.53;100483.94;10587285;28;20510;-62
2021/06/20 00:18:09;;;;;;;64.72;46.53;;;;;;;18.95;85.78;100494.41;10587109;28;20044;-61
2021/06/20 00:23:11;;;;;;;59.85;45.75;;;;;;;19.00;86.85;100478.03;10586996;28;20047;-61
2021/06/20 00:28:14;;;;;;;57.42;43.55;;;;;;;18.82;86.76;100480.63;10586739;28;20047;-61
2021/06/20 00:33:16;;;;;;;57.58;44.72;;;;;;;18.69;87.64;100476.53;10586438;28;20043;-61
2021/06/20 00:38:19;;;;;;;53.33;42.72;;;;;;;18.84;86.55;100462.78;10586157;28;20055;-62
2021/06/20 00:43:21;;;;;;;48.40;37.83;;;;;;;18.87;87.33;100460.66;10586387;28;20055;-62
2021/06/20 00:48:24;;;;;;;57.45;43.05;;;;;;;18.97;86.50;100473.84;10585323;28;20395;-62
2021/06/20 00:53:26;;;;;;;55.03;39.45;;;;;;;19.02;86.12;100465.47;10585379;28;20075;-62
2021/06/20 00:58:29;;;;;;;39.45;32.53;;;;;;;19.13;85.62;100475.81;10585004;28;20047;-62
2021/06/20 01:03:31;;;;;;;33.67;28.98;;;;;;;19.17;86.24;100471.06;10584831;28;20075;-62
2021/06/20 01:08:35;;;;;;;30.17;22.30;;;;;;;19.21;86.14;100464.47;10584699;28;20533;-62
2021/06/20 01:13:37;;;;;;;26.40;23.60;;;;;;;19.24;85.31;100451.72;10584798;28;20043;-62
2021/06/20 01:18:39;;;;;;;22.25;19.80;;;;;;;19.44;85.32;100455.03;10584344;28;20043;-62
2021/06/20 01:23:42;;;;;;;15.85;13.88;;;;;;;19.55;85.58;100448.66;10583162;28;20047;-63
2021/06/20 01:28:51;;;;;;;18.15;14.32;;;;;;;19.42;86.75;100443.75;10583844;28;20055;-62
2021/06/20 01:33:54;;;;;;;16.77;15.20;;;;;;;19.46;86.79;100437.13;10583764;28;20052;-62
2021/06/20 01:38:56;;;;;;;14.35;12.80;;;;;;;19.58;84.60;100464.25;10583491;28;20044;-61
2021/06/20 01:43:58;;;;;;;14.60;13.30;;;;;;;19.70;86.21;100469.31;10582980;28;20055;-63
2021/06/20 01:49:01;;;;;;;20.52;16.52;;;;;;;19.57;85.71;100485.66;10582829;28;20051;-62
2021/06/20 01:54:03;;;;;;;15.75;14.25;;;;;;;19.74;85.67;100468.03;10582056;28;20051;-60
2021/06/20 01:59:06;;;;;;;15.02;13.50;;;;;;;19.60;86.69;100446.38;10582624;28;20050;-60
2021/06/20 02:04:08;;;;;;;16.35;14.57;;;;;;;19.78;85.58;100418.94;10582626;28;20044;-62
2021/06/20 02:09:11;;;;;;;25.48;21.08;;;;;;;19.44;86.77;100431.13;10582017;28;20517;-62
2021/06/20 02:14:16;;;;;;;20.33;16.73;;;;;;;19.49;87.80;100423.53;10581401;28;20070;-62
2021/06/20 02:19:18;;;;;;;19.13;17.05;;;;;;;19.43;86.03;100449.88;10582285;28;20044;-61
2021/06/20 02:24:21;;;;;;;16.10;13.48;;;;;;;19.61;85.38;100444.53;10581659;28;20063;-61
2021/06/20 02:29:23;;;;;;;19.90;17.13;;;;;;;19.41;87.93;100427.97;10581667;28;20055;-62
2021/06/20 02:34:26;;;;;;;20.80;18.38;;;;;;;19.59;86.95;100430.59;10581802;28;20047;-61
2021/06/20 02:39:28;;;;;;;17.17;13.27;;;;;;;19.81;85.31;100471.75;10581427;28;20039;-61
2021/06/20 02:44:30;;;;;;;18.00;16.10;;;;;;;19.62;85.67;100488.72;10581541;28;20055;-62
2021/06/20 02:49:34;;;;;;;22.25;19.10;;;;;;;19.60;86.56;100490.66;10581010;28;20043;-62
2021/06/20 02:54:37;;;;;;;24.40;20.20;;;;;;;19.70;83.87;100493.22;10581573;28;20047;-61
2021/06/20 02:59:39;;;;;;;23.92;20.73;;;;;;;19.80;87.03;100478.91;10580789;28;20044;-60
2021/06/20 03:04:42;;;;;;;32.88;28.40;;;;;;;19.75;86.09;100475.03;10581072;28;20043;-62
2021/06/20 03:09:44;;;;;;;23.80;21.35;;;;;;;19.77;85.86;100479.22;10579758;28;20055;-62
2021/06/20 03:14:47;;;;;;;43.53;34.60;;;;;;;19.73;86.96;100461.06;10580861;28;20050;-62
2021/06/20 03:19:50;;;;;;;45.15;37.22;;;;;;;19.79;82.42;100460.47;10581121;28;20040;-61
2021/06/20 03:24:53;;;;;;;37.70;29.63;;;;;;;19.65;84.34;100480.41;10578834;28;20403;-61
2021/06/20 03:29:55;;;;;;;46.00;38.15;;;;;;;19.49;84.27;100491.75;10587283;28;20483;-61
2021/06/20 03:34:57;;;;;;;42.58;34.40;;;;;;;19.56;84.96;100506.06;10588219;28;20509;-62
2021/06/20 03:40:00;;;;;;;45.90;37.90;;;;;;;19.54;82.84;100504.56;10588344;28;20487;-62
2021/06/20 03:45:05;;;;;;;52.60;36.08;;;;;;;19.33;83.67;100502.22;10588351;28;20055;-61
2021/06/20 03:50:09;;;;;;;66.90;46.83;;;;;;;18.88;87.08;100507.44;10587900;28;20506;-61
2021/06/20 03:55:11;;;;;;;51.92;38.05;;;;;;;19.09;84.12;100508.97;10587850;28;20051;-60
2021/06/20 04:00:14;;;;;;;55.08;41.85;;;;;;;18.92;85.00;100508.78;10587454;28;20402;-60
2021/06/20 04:05:17;;;;;;;51.65;38.70;;;;;;;19.08;78.15;100507.28;10587490;28;20517;-60
2021/06/20 04:10:19;;;;;;;64.15;46.97;;;;;;;18.68;86.05;100527.88;10587401;28;20050;-61
2021/06/20 04:15:22;;;;;;;69.07;46.55;;;;;;;18.72;85.82;100523.94;10586394;28;20043;-60
2021/06/20 04:20:24;;;;;;;43.13;35.15;;;;;;;18.90;82.87;100531.97;10586974;28;20044;-60
2021/06/20 04:25:27;;;;;;;58.15;42.67;;;;;;;18.66;85.09;100542.25;10586236;28;20511;-60
2021/06/20 04:30:29;;;;;;;60.38;42.25;;;;;;;18.73;81.18;100538.88;10586479;28;20043;-60
2021/06/20 04:35:32;;;;;;;62.83;43.33;;;;;;;18.73;84.14;100546.84;10586182;28;20047;-61
2021/06/20 04:40:34;;;;;;;43.13;34.35;;;;;;;18.96;80.47;100553.59;10586229;28;20044;-60
2021/06/20 04:45:37;;;;;;;54.40;39.80;;;;;;;18.63;83.25;100561.13;10585918;28;20055;-60
2021/06/20 04:50:39;;;;;;;48.83;36.33;;;;;;;18.71;83.09;100575.31;10585378;28;20039;-60
2021/06/20 04:55:42;;;;;;;53.55;36.97;;;;;;;18.73;81.63;100581.31;10584955;28;20483;-61
2021/06/20 05:00:44;;;;;;;51.47;40.58;;;;;;;18.78;81.04;100586.19;10585219;28;20054;-61
2021/06/20 05:05:46;;;;;;;50.38;37.85;;;;;;;18.78;83.06;100574.72;10584956;28;20047;-60
2021/06/20 05:10:50;;;;;;;52.45;39.20;;;;;;;18.80;82.35;100581.56;10585556;28;20040;-60
2021/06/20 05:15:53;;;;;;;55.63;41.25;;;;;;;18.55;83.82;100591.00;10585385;28;20040;-61
2021/06/20 05:20:55;;;;;;;48.35;35.22;;;;;;;18.82;82.83;100602.63;10584603;28;20044;-61
2021/06/20 05:25:58;;;;;;;49.80;38.08;;;;;;;18.81;81.83;100606.25;10584520;28;20044;-60
2021/06/20 05:31:00;;;;;;;47.60;37.08;;;;;;;18.95;81.08;100619.09;10583958;28;20048;-60
2021/06/20 05:36:03;;;;;;;48.10;36.50;;;;;;;19.14;80.34;100606.69;10583590;28;20132;-60
2021/06/20 05:41:05;;;;;;;53.30;37.70;;;;;;;19.12;79.68;100623.59;10584113;28;20075;-60
2021/06/20 05:46:07;;;;;;;47.30;35.05;;;;;;;19.42;79.75;100621.59;10583363;28;20051;-60
2021/06/20 05:51:10;;;;;;;47.33;34.50;;;;;;;19.43;80.70;100638.38;10583453;27;20100;-59
2021/06/20 05:56:12;;;;;;;42.55;32.55;;;;;;;19.20;79.49;100657.38;10582654;28;20050;-60
2021/06/20 06:01:15;;;;;;;36.85;28.92;;;;;;;19.08;79.59;100675.31;10582867;28;20392;-60
2021/06/20 06:06:17;;;;;;;42.10;30.67;;;;;;;19.07;77.44;100681.56;10582563;28;20055;-61
2021/06/20 06:11:19;;;;;;;35.35;28.35;;;;;;;18.88;81.64;100669.22;10582321;28;20070;-60
2021/06/20 06:16:26;;;;;;;39.10;28.90;;;;;;;19.01;80.22;100674.19;10582267;28;20055;-60
2021/06/20 06:21:28;;;;;;;34.30;27.13;;;;;;;19.08;79.43;100674.44;10581801;28;20040;-60
2021/06/20 06:26:31;;;;;;;36.70;26.92;;;;;;;19.05;79.12;100666.81;10581507;28;20491;-60
2021/06/20 06:31:35;;;;;;;35.67;26.52;;;;;;;18.96;81.40;100663.19;10581868;28;20050;-60
2021/06/20 06:36:38;;;;;;;30.05;25.08;;;;;;;19.17;77.45;100681.53;10581283;28;20091;-61
2021/06/20 06:41:40;;;;;;;37.45;27.17;;;;;;;18.92;81.46;100696.31;10581352;28;20059;-60
2021/06/20 06:46:43;;;;;;;32.42;24.60;;;;;;;18.97;78.72;100703.84;10581055;28;20048;-61
2021/06/20 06:51:46;;;;;;;28.95;23.15;;;;;;;19.33;76.25;100703.94;10581824;28;20086;-60
2021/06/20 06:56:48;;;;;;;27.48;22.05;;;;;;;19.24;77.10;100708.31;10580929;28;20059;-60
2021/06/20 07:01:51;;;;;;;27.60;22.67;;;;;;;19.24;77.04;100703.84;10582835;28;20380;-60
2021/06/20 07:06:53;;;;;;;30.48;24.05;;;;;;;19.52;78.75;100711.81;10589316;28;20047;-60
2021/06/20 07:11:55;;;;;;;29.17;23.77;;;;;;;20.02;75.69;100699.91;10589598;28;20054;-59
2021/06/20 07:16:58;;;;;;;23.55;20.88;;;;;;;20.12;73.34;100707.78;10589028;28;20047;-60
2021/06/20 07:22:00;;;;;;;25.40;22.05;;;;;;;20.41;72.71;100707.56;10589520;28;20046;-61
2021/06/20 07:27:03;;;;;;;24.13;20.92;;;;;;;20.49;72.01;100706.75;10589096;27;20051;-60
2021/06/20 07:32:06;;;;;;;21.77;19.15;;;;;;;20.42;73.00;100711.88;10589039;28;20039;-60
2021/06/20 07:37:08;;;;;;;19.88;16.98;;;;;;;20.18;71.29;100725.81;10588596;28;20048;-60
2021/06/20 07:42:10;;;;;;;21.85;17.35;;;;;;;20.07;73.64;100731.34;10588407;28;20047;-60
2021/06/20 07:47:12;;;;;;;18.75;15.30;;;;;;;19.98;71.13;100733.09;10588682;28;20051;-60
2021/06/20 07:52:15;;;;;;;17.42;14.80;;;;;;;20.16;71.37;100739.25;10586798;28;20495;-59
2021/06/20 07:57:21;;;;;;;15.23;12.95;;;;;;;20.78;69.53;100744.59;10586410;28;20050;-60
2021/06/20 08:02:23;;;;;;;13.68;12.32;;;;;;;20.91;68.62;100749.50;10587761;28;20053;-59
2021/06/20 08:07:25;;;;;;;16.15;14.25;;;;;;;20.72;68.39;100760.34;10587430;28;20047;-60
2021/06/20 08:12:28;;;;;;;15.10;13.10;;;;;;;21.12;67.08;100746.44;10586472;28;20063;-59
2021/06/20 08:17:30;;;;;;;13.02;10.90;;;;;;;21.24;67.72;100752.34;10585765;28;20047;-59
2021/06/20 08:22:33;;;;;;;11.45;10.27;;;;;;;20.96;68.69;100749.00;10586669;28;20470;-60
2021/06/20 08:27:36;;;;;;;12.23;11.00;;;;;;;20.84;68.55;100759.06;10586417;28;20046;-60
2021/06/20 08:32:39;;;;;;;10.68;9.18;;;;;;;20.97;66.97;100756.00;10586302;28;20044;-60
2021/06/20 08:37:41;;;;;;;11.43;9.30;;;;;;;20.69;67.21;100768.63;10586555;28;20070;-60
2021/06/20 08:42:43;;;;;;;10.68;9.57;;;;;;;20.92;66.00;100774.28;10586522;28;20055;-60
2021/06/20 08:47:46;;;;;;;12.68;10.88;;;;;;;20.56;67.22;100788.44;10585852;28;20070;-60
2021/06/20 08:52:53;;;;;;;12.18;9.85;;;;;;;21.37;64.47;100806.97;10584947;28;20075;-59
2021/06/20 08:58:00;;;;;;;13.80;11.43;;;;;;;20.59;66.39;100825.38;10585805;28;20109;-59
2021/06/20 09:03:02;;;;;;;13.95;10.18;;;;;;;21.44;63.63;100822.16;10584612;28;20442;-60
2021/06/20 09:08:17;;;;;;;11.27;9.68;;;;;;;22.33;61.35;100819.22;10583988;28;20059;-60
2021/06/20 09:13:19;;;;;;;8.90;7.88;;;;;;;22.32;60.47;100813.03;10585498;28;20058;-60
2021/06/20 09:18:21;;;;;;;9.38;7.93;;;;;;;21.94;63.40;100806.41;10584677;28;20051;-59
2021/06/20 09:23:24;;;;;;;9.35;8.45;;;;;;;22.65;60.58;100798.88;10584234;28;20047;-59
2021/06/20 09:28:35;;;;;;;13.52;9.05;;;;;;;22.18;62.51;100797.66;10584379;28;20044;-60
2021/06/20 09:33:38;;;;;;;8.60;7.80;;;;;;;22.31;60.43;100805.19;10583890;28;20379;-59
2021/06/20 09:38:40;;;;;;;8.77;7.57;;;;;;;22.77;61.37;100787.69;10583829;28;20054;-60
2021/06/20 09:43:56;;;;;;;10.75;9.65;;;;;;;23.15;59.10;100805.88;10583272;28;20487;-60
2021/06/20 09:48:58;;;;;;;12.15;10.32;;;;;;;22.52;59.92;100812.72;10583489;28;20054;-60
2021/06/20 09:54:01;;;;;;;8.43;7.53;;;;;;;23.53;59.70;100814.91;10581578;28;20123;-59
2021/06/20 09:59:08;;;;;;;8.85;8.05;;;;;;;24.38;56.78;100810.66;10581491;28;20048;-60
2021/06/20 10:04:12;;;;;;;8.77;7.40;;;;;;;23.21;59.23;100828.38;10581232;28;20062;-60
2021/06/20 10:09:15;;;;;;;9.55;8.65;;;;;;;23.53;57.45;100820.25;10581936;28;20082;-59
2021/06/20 10:14:17;;;;;;;9.55;8.65;;;;;;;24.43;57.21;100827.00;10581443;28;20225;-59
2021/06/20 10:19:23;;;;;;;9.85;8.35;;;;;;;23.76;56.84;100832.06;10582450;28;20507;-59
2021/06/20 10:24:26;;;;;;;9.00;8.07;;;;;;;23.00;59.58;100843.91;10581871;28;20087;-59
2021/06/20 10:29:30;;;;;;;9.13;7.65;;;;;;;25.28;56.26;100826.97;10582104;28;20372;-59
2021/06/20 10:34:33;;;;;;;7.78;6.57;;;;;;;25.97;53.82;100818.63;10582460;28;20073;-59
2021/06/20 10:39:48;;;;;;;11.10;7.45;;;;;;;24.89;54.78;100811.94;10581910;28;20058;-59
2021/06/20 10:44:52;;;;;;;6.20;5.63;;;;;;;24.75;53.31;100808.22;10581646;28;20066;-59
2021/06/20 10:49:57;;;;;;;6.97;5.68;;;;;;;24.54;56.11;100807.00;10581686;28;20043;-59
2021/06/20 10:55:13;;;;;;;6.43;5.82;;;;;;;24.61;54.09;100810.69;10581769;28;20048;-59
2021/06/20 11:00:33;;;;;;;6.93;4.70;;;;;;;23.81;56.38;100816.31;10581726;28;20043;-59
2021/06/20 11:05:44;;;;;;;4.53;3.30;;;;;;;24.82;55.47;100820.69;10581073;28;20059;-60
2021/06/20 11:10:47;;;;;;;5.47;4.85;;;;;;;24.69;51.19;100804.41;10580802;28;20044;-59
2021/06/20 11:16:20;;;;;;;3.92;3.63;;;;;;;23.25;55.58;100808.31;10581050;28;20071;-59
2021/06/20 11:21:25;;;;;;;4.10;3.33;;;;;;;23.50;54.36;100801.06;10567232;28;20047;-60
2021/06/20 11:26:28;;;;;;;3.38;2.40;;;;;;;23.87;53.94;100791.59;10579003;28;20055;-59
2021/06/20 11:31:30;;;;;;;3.42;2.97;;;;;;;24.18;53.01;100775.53;10580220;28;20044;-59
2021/06/20 11:36:33;;;;;;;8.30;3.28;;;;;;;25.32;50.35;100775.53;10580276;28;20069;-59
2021/06/20 11:41:44;;;;;;;3.40;3.10;;;;;;;24.29;53.95;100783.13;10580189;28;20055;-59
2021/06/20 11:46:47;;;;;;;3.70;3.35;;;;;;;24.31;51.91;100780.28;10579982;28;20056;-58
2021/06/20 11:51:52;;;;;;;2.55;2.33;;;;;;;24.49;53.99;100779.97;10588284;28;20400;-59
2021/06/20 11:57:05;;;;;;;2.53;2.33;;;;;;;25.08;49.66;100779.25;10586563;28;20479;-59
2021/06/20 12:02:13;;;;;;;4.47;2.90;;;;;;;25.03;50.32;100766.44;10588980;28;20054;-58
2021/06/20 12:07:15;;;;;;;3.97;3.00;;;;;;;23.56;50.49;100773.66;10587700;28;20090;-60
2021/06/20 12:12:18;;;;;;;2.00;1.73;;;;;;;24.14;55.10;100784.06;10587270;28;20048;-59
2021/06/20 12:17:21;;;;;;;2.92;2.03;;;;;;;23.82;53.26;100776.09;10586265;28;20077;-59
2021/06/20 12:22:24;;;;;;;2.30;2.15;;;;;;;23.82;53.68;100760.06;10586969;28;20055;-59
2021/06/20 12:27:36;;;;;;;2.00;1.80;;;;;;;24.67;52.74;100769.78;10586993;28;20055;-59
2021/06/20 12:32:39;;;;;;;2.85;2.00;;;;;;;27.35;47.75;100778.94;10586828;28;20040;-59
2021/06/20 12:37:42;;;;;;;2.67;2.40;;;;;;;26.83;43.58;100772.16;10586734;28;20402;-59
2021/06/20 12:42:54;;;;;;;2.17;1.98;;;;;;;26.55;46.12;100772.97;10586571;28;20067;-60
2021/06/20 12:48:00;;;;;;;2.78;1.63;;;;;;;27.35;46.38;100781.63;10586579;28;20089;-58
2021/06/20 12:53:03;;;;;;;2.88;1.50;;;;;;;25.62;46.48;100774.66;10584944;28;20051;-59
2021/06/20 12:58:10;;;;;;;2.65;2.05;;;;;;;27.45;43.03;100781.22;10584967;28;20055;-59
2021/06/20 13:03:12;;;;;;;1.80;1.55;;;;;;;28.96;40.13;100785.44;10584895;28;20411;-59
2021/06/20 13:08:16;;;;;;;1.48;1.13;;;;;;;30.59;40.17;100779.94;10584007;28;20051;-59
2021/06/20 13:13:18;;;;;;;1.55;1.20;;;;;;;29.04;40.76;100774.44;10584999;28;20055;-60
2021/06/20 13:18:21;;;;;;;4.30;0.98;;;;;;;31.39;36.22;100768.28;10584542;28;20052;-60
2021/06/20 13:23:23;;;;;;;3.80;1.10;;;;;;;30.62;37.53;100726.28;10585193;28;20043;-60
2021/06/20 13:28:26;;;;;;;2.95;1.02;;;;;;;28.56;41.48;100726.22;10584543;28;20095;-59
2021/06/20 13:33:28;;;;;;;0.63;0.63;;;;;;;27.92;42.20;100759.88;10584142;28;20051;-59
2021/06/20 13:38:30;;;;;;;3.15;1.25;;;;;;;28.09;38.77;100745.06;10584010;28;20054;-60
2021/06/20 13:43:33;;;;;;;0.82;0.80;;;;;;;27.54;42.59;100763.09;10583978;28;20059;-60
2021/06/20 13:48:35;;;;;;;1.10;1.10;;;;;;;26.73;45.83;100760.94;10582494;28;20056;-58
2021/06/20 13:53:37;;;;;;;3.85;0.90;;;;;;;26.92;41.78;100727.19;10583638;28;20059;-59
2021/06/20 13:58:40;;;;;;;1.20;1.10;;;;;;;28.33;42.07;100732.03;10582997;28;20055;-60
2021/06/20 14:03:42;;;;;;;0.95;0.95;;;;;;;30.47;36.04;100723.09;10581927;28;20051;-59
2021/06/20 14:08:44;;;;;;;0.70;0.70;;;;;;;30.28;37.38;100712.22;10582899;28;20051;-60
2021/06/20 14:13:47;;;;;;;3.53;1.00;;;;;;;30.55;34.74;100714.72;10582341;28;20048;-60
2021/06/20 14:18:49;;;;;;;2.05;0.70;;;;;;;31.01;35.96;100728.81;10582347;28;20050;-60
2021/06/20 14:23:52;;;;;;;1.05;0.90;;;;;;;28.28;39.00;100719.19;10582490;28;20054;-59
2021/06/20 14:28:55;;;;;;;0.65;0.65;;;;;;;27.88;41.42;100726.34;10582565;28;20478;-60
2021/06/20 14:33:57;;;;;;;1.13;0.85;;;;;;;29.22;36.93;100716.38;10582644;28;20048;-60
2021/06/20 14:38:59;;;;;;;1.35;0.73;;;;;;;29.83;36.76;100726.66;10582089;28;20067;-59
2021/06/20 14:44:02;;;;;;;0.95;0.85;;;;;;;29.21;37.62;100725.50;10581528;28;20052;-61
2021/06/20 14:49:04;;;;;;;1.83;0.60;;;;;;;30.79;32.89;100718.41;10581879;28;20483;-59
2021/06/20 14:54:07;;;;;;;1.48;0.60;;;;;;;28.93;35.21;100710.41;10581264;28;20048;-61
2021/06/20 14:59:09;;;;;;;0.93;0.70;;;;;;;28.67;37.02;100695.16;10581870;28;20051;-61
2021/06/20 15:04:12;;;;;;;1.38;0.73;;;;;;;28.07;39.30;100693.28;10580066;28;20039;-60
2021/06/20 15:09:15;;;;;;;2.28;0.75;;;;;;;29.91;37.06;100682.41;10581771;28;20055;-60
2021/06/20 15:14:17;;;;;;;0.60;0.60;;;;;;;28.89;37.56;100687.63;10581032;28;20062;-61
2021/06/20 15:19:19;;;;;;;0.77;0.77;;;;;;;27.92;37.95;100677.31;10581057;28;20050;-60
2021/06/20 15:24:22;;;;;;;0.85;0.85;;;;;;;26.68;41.16;100694.41;10585466;28;20051;-60
2021/06/20 15:29:24;;;;;;;0.85;0.68;;;;;;;27.40;41.27;100676.16;10588213;28;20043;-59
2021/06/20 15:34:34;;;;;;;;;;;;;;;26.52;44.57;100687.44;10589630;28;20048;-59
2021/06/20 15:39:37;;;;;;;1.25;0.85;;;;;;;26.79;42.07;100687.66;10588578;28;20412;-61
2021/06/20 15:44:39;;;;;;;1.75;0.80;;;;;;;26.55;41.76;100692.41;10588449;28;20058;-61
2021/06/20 15:49:41;;;;;;;1.83;0.52;;;;;;;26.91;42.60;100685.22;10588310;28;20400;-61
2021/06/20 15:54:44;;;;;;;2.10;0.80;;;;;;;28.35;39.22;100670.72;10587884;28;20044;-60
2021/06/20 15:59:51;;;;;;;1.30;1.20;;;;;;;28.62;39.64;100674.22;10588071;28;20096;-60
2021/06/20 16:04:53;;;;;;;2.03;0.98;;;;;;;28.63;41.00;100683.13;10587704;28;20522;-61
2021/06/20 16:09:56;;;;;;;1.60;1.50;;;;;;;28.13;42.22;100673.63;10588102;28;20054;-61
2021/06/20 16:14:58;;;;;;;2.25;1.33;;;;;;;25.97;46.24;100684.50;10587346;28;20043;-61
2021/06/20 16:20:01;;;;;;;2.10;1.25;;;;;;;26.05;46.19;100696.97;10587225;28;20043;-61
2021/06/20 16:25:04;;;;;;;2.53;2.20;;;;;;;25.83;47.55;100694.25;10587613;28;20056;-61
2021/06/20 16:30:09;;;;;;;1.38;1.25;;;;;;;25.82;48.62;100700.63;10586818;28;20051;-60
2021/06/20 16:35:13;;;;;;;1.40;1.25;;;;;;;25.87;47.88;100711.63;10585177;28;20433;-61
2021/06/20 16:40:17;;;;;;;1.35;1.25;;;;;;;25.73;48.56;100715.19;10586200;28;20051;-62
2021/06/20 16:45:20;;;;;;;1.60;1.50;;;;;;;25.61;50.47;100704.13;10586153;28;20048;-61
2021/06/20 16:50:23;;;;;;;2.22;1.20;;;;;;;25.54;50.63;100704.06;10586357;28;20112;-60
2021/06/20 16:55:26;;;;;;;2.42;1.75;;;;;;;25.00;54.44;100705.22;10584930;28;20061;-60
2021/06/20 17:00:33;;;;;;;2.85;1.38;;;;;;;25.94;52.15;100693.75;10586485;28;20082;-60
2021/06/20 17:05:36;;;;;;;4.05;2.78;;;;;;;25.57;52.35;100701.00;10585752;28;20051;-61
2021/06/20 17:10:38;;;;;;;1.63;1.23;;;;;;;25.65;48.32;100691.19;10586140;28;20048;-60
2021/06/20 17:15:41;;;;;;;1.40;1.30;;;;;;;25.67;49.67;100694.50;10585005;28;20415;-60
2021/06/20 17:20:43;;;;;;;1.20;1.00;;;;;;;25.02;53.04;100681.75;10585122;28;20148;-61
2021/06/20 17:25:46;;;;;;;1.20;1.10;;;;;;;25.27;52.42;100684.16;10584964;28;20048;-60
2021/06/20 17:30:48;;;;;;;1.73;1.38;;;;;;;25.18;55.10;100670.00;10584603;28;20395;-60
2021/06/20 17:35:51;;;;;;;1.80;1.13;;;;;;;25.24;52.82;100662.25;10584313;28;20044;-60
2021/06/20 17:40:53;;;;;;;1.98;1.10;;;;;;;25.29;50.67;100673.25;10584221;28;20047;-61
2021/06/20 17:45:56;;;;;;;3.28;1.00;;;;;;;24.92;50.79;100683.06;10583900;28;20066;-61
2021/06/20 17:50:59;;;;;;;2.92;1.58;;;;;;;25.15;51.66;100669.53;10583856;28;20050;-61
2021/06/20 17:56:02;;;;;;;1.55;1.17;;;;;;;24.72;51.66;100650.66;10581878;28;20052;-60
2021/06/20 18:01:04;;;;;;;1.10;1.10;;;;;;;24.70;51.04;100637.44;10582602;28;20040;-59
2021/06/20 18:06:10;;;;;;;1.92;1.20;;;;;;;24.46;53.12;100630.47;10583168;28;20056;-60
2021/06/20 18:11:13;;;;;;;1.33;1.02;;;;;;;24.34;54.59;100626.59;10583867;28;20046;-59
2021/06/20 18:16:15;;;;;;;2.95;1.35;;;;;;;24.04;57.30;100624.69;10582300;28;20047;-60
2021/06/20 18:21:18;;;;;;;3.30;2.67;;;;;;;24.07;55.12;100621.66;10581639;28;20044;-61
2021/06/20 18:26:20;;;;;;;3.17;2.13;;;;;;;23.80;57.06;100631.03;10582433;28;20055;-60
2021/06/20 18:31:23;;;;;;;6.13;4.10;;;;;;;23.31;59.43;100631.38;10582049;28;20123;-59
2021/06/20 18:36:26;;;;;;;5.55;5.00;;;;;;;23.59;60.28;100622.81;10580396;28;20090;-59
2021/06/20 18:41:28;;;;;;;7.32;6.43;;;;;;;22.96;62.15;100620.16;10581766;28;20047;-60
2021/06/20 18:46:31;;;;;;;7.97;5.95;;;;;;;22.76;63.15;100633.06;10582243;28;20058;-61
2021/06/20 18:51:33;;;;;;;6.50;5.90;;;;;;;22.94;62.38;100625.66;10581738;28;20402;-60
2021/06/20 18:56:36;;;;;;;6.90;6.20;;;;;;;22.56;63.86;100637.97;10581102;28;20408;-60
2021/06/20 19:01:38;;;;;;;7.25;6.45;;;;;;;22.45;64.63;100650.66;10579989;28;20051;-60
2021/06/20 19:06:40;;;;;;;8.55;6.68;;;;;;;21.95;66.15;100653.50;10581386;28;20120;-60
2021/06/20 19:11:43;;;;;;;7.55;6.72;;;;;;;21.75;66.12;100661.78;10581524;28;20050;-59
2021/06/20 19:16:45;;;;;;;7.90;5.82;;;;;;;22.00;65.02;100678.63;10581036;28;20043;-59
2021/06/20 19:21:47;;;;;;;5.28;4.82;;;;;;;22.08;65.12;100686.66;10580243;28;20051;-60
2021/06/20 19:26:52;;;;;;;7.72;5.47;;;;;;;21.92;65.64;100678.63;10581058;28;20047;-60
2021/06/20 19:31:54;;;;;;;7.32;5.47;;;;;;;21.76;66.31;100681.28;10581553;28;20040;-60
2021/06/20 19:36:57;;;;;;;4.90;4.40;;;;;;;21.60;65.99;100666.09;10580852;28;20052;-60
2021/06/20 19:42:00;;;;;;;5.60;4.80;;;;;;;21.45;65.86;100664.06;10580612;28;20055;-60
2021/06/20 19:47:02;;;;;;;6.35;5.57;;;;;;;21.38;65.57;100675.50;10580429;28;20385;-61
2021/06/20 19:52:05;;;;;;;5.20;4.70;;;;;;;21.34;66.16;100689.13;10580481;28;20118;-60
2021/06/20 19:57:08;;;;;;;7.70;4.85;;;;;;;21.06;67.56;100698.34;10580447;28;20068;-60
2021/06/20 20:02:10;;;;;;;6.88;4.28;;;;;;;21.37;66.27;100706.63;10580330;28;20051;-61
2021/06/20 20:07:13;;;;;;;5.90;4.65;;;;;;;21.11;67.76;100704.00;10580916;28;20059;-60
2021/06/20 20:12:15;;;;;;;5.53;5.03;;;;;;;20.97;68.39;100711.59;10587083;28;20403;-59
2021/06/20 20:17:17;;;;;;;6.15;4.85;;;;;;;20.96;69.05;100720.59;10587640;28;20100;-60
2021/06/20 20:22:20;;;;;;;7.45;4.50;;;;;;;20.93;69.01;100728.88;10587511;28;20055;-60
2021/06/20 20:27:22;;;;;;;5.15;4.75;;;;;;;20.92;67.70;100731.69;10586906;28;20399;-59
2021/06/20 20:32:24;;;;;;;5.45;4.63;;;;;;;20.50;70.25;100727.06;10587252;28;20040;-60
2021/06/20 20:37:27;;;;;;;5.65;5.15;;;;;;;20.50;70.71;100724.41;10586575;28;20048;-60
2021/06/20 20:42:29;;;;;;;8.07;5.00;;;;;;;20.45;70.94;100732.00;10586517;28;20398;-58
2021/06/20 20:47:32;;;;;;;4.75;4.25;;;;;;;20.50;70.85;100732.38;10586579;28;20123;-59
2021/06/20 20:52:35;;;;;;;5.57;5.05;;;;;;;20.31;71.01;100720.94;10586292;28;20062;-60
2021/06/20 20:57:38;;;;;;;5.03;4.30;;;;;;;20.33;72.00;100718.94;10585868;28;20055;-59
2021/06/20 21:02:41;;;;;;;6.82;4.80;;;;;;;20.15;71.55;100695.03;10568002;28;20051;-60
2021/06/20 21:07:44;;;;;;;9.63;5.70;;;;;;;19.94;72.01;100694.50;10585745;28;20505;-60
2021/06/20 21:12:46;;;;;;;8.00;5.60;;;;;;;19.91;71.58;100673.56;10585608;28;20051;-59
2021/06/20 21:17:48;;;;;;;7.28;5.18;;;;;;;19.94;71.93;100666.13;10584969;28;20055;-60
2021/06/20 21:22:51;;;;;;;6.93;4.80;;;;;;;19.98;72.93;100664.00;10582482;28;20073;-60
2021/06/20 21:27:53;;;;;;;9.93;5.18;;;;;;;20.01;72.04;100643.28;10584598;28;20052;-59
2021/06/20 21:32:56;;;;;;;5.30;4.82;;;;;;;20.07;72.44;100633.84;10583952;28;20051;-61
2021/06/20 21:37:58;;;;;;;8.90;5.72;;;;;;;19.90;74.20;100619.59;10584150;28;20047;-61
2021/06/20 21:43:01;;;;;;;9.43;5.60;;;;;;;19.77;73.72;100609.38;10584692;28;20052;-60
2021/06/20 21:48:04;;;;;;;9.85;5.60;;;;;;;19.40;74.02;100601.50;10583765;28;20059;-59
2021/06/20 21:53:06;;;;;;;6.70;5.60;;;;;;;19.37;75.11;100599.16;10583224;28;20049;-60
2021/06/20 21:58:08;;;;;;;6.25;5.47;;;;;;;19.53;74.65;100609.91;10582681;28;20050;-60
2021/06/20 22:03:11;;;;;;;6.63;5.18;;;;;;;19.45;74.57;100593.91;10582989;28;20043;-60
2021/06/20 22:08:13;;;;;;;7.03;5.28;;;;;;;19.25;75.58;100588.75;10583167;28;20050;-60
2021/06/20 22:13:15;;;;;;;6.93;5.57;;;;;;;19.25;75.24;100586.09;10583215;28;20054;-59
2021/06/20 22:18:18;;;;;;;6.55;4.90;;;;;;;19.31;74.72;100580.16;10583221;28;20044;-60
2021/06/20 22:23:20;;;;;;;6.53;5.10;;;;;;;19.27;75.40;100597.38;10582725;28;20048;-60
2021/06/20 22:28:23;;;;;;;6.35;5.53;;;;;;;19.24;75.19;100594.19;10582309;28;20051;-60
2021/06/20 22:33:26;;;;;;;8.65;6.93;;;;;;;19.28;74.40;100579.63;10581873;28;20074;-60
2021/06/20 22:38:28;;;;;;;8.95;5.57;;;;;;;19.14;75.75;100582.81;10582097;28;20047;-59
2021/06/20 22:43:31;;;;;;;10.07;4.60;;;;;;;19.47;74.62;100591.97;10581504;28;20502;-59
2021/06/20 22:48:33;;;;;;;6.10;5.50;;;;;;;19.12;76.18;100582.97;10582000;28;20059;-60
2021/06/20 22:53:35;;;;;;;7.35;5.75;;;;;;;18.90;77.25;100574.41;10581478;28;20696;-60
2021/06/20 22:58:38;;;;;;;5.88;5.38;;;;;;;19.01;77.29;100577.84;10581485;28;20487;-60
2021/06/20 23:03:40;;;;;;;7.35;4.75;;;;;;;18.80;77.16;100597.47;10581616;28;20051;-60